Eiho Maru No.5 — JG5332 — position and weather

sailwx.info

Track history (hours):
 
Tides and Currents Weather Stations Pressure Air Temp Water Temp Dewpoint Dewpoint Depression Visibility Wind Speed Wind Dir Waves Ship Positions

Eiho Maru No.5

Last reported at 2018-Feb-23 22:55 UTC. Time now 2018-Feb-24 03:39 UTC.
Position N 35°37' E 139°50'.

Length 90 m; draft 4.5 m.

Type: Ship (hazmat cat A). MMSI: 431000692.

Date/timePositionNaut miles runAvg speedWind from/ knotsBaromVisibWave heightAir tempDewpointWater temp
2018-Feb-23 22:55N 35°37' E 139°50'0 0.0
2018-Feb-23 22:25N 35°37' E 139°50'0 0.2
2018-Feb-23 22:00N 35°37' E 139°50'3 5.4
2018-Feb-23 21:30N 35°35' E 139°52'0 0.4
2018-Feb-23 21:00N 35°35' E 139°52'0 0.0
2018-Feb-23 20:27N 35°35' E 139°52'0 0.1
2018-Feb-23 20:00N 35°35' E 139°52'0 0.0
2018-Feb-23 19:18N 35°35' E 139°52'0 0.0
2018-Feb-23 18:57N 35°35' E 139°52'0 0.0
2018-Feb-23 18:30N 35°35' E 139°52'0 0.0
2018-Feb-23 15:54N 35°35' E 139°52'0 0.0
2018-Feb-23 15:29N 35°35' E 139°52'0 0.0
2018-Feb-23 14:53N 35°35' E 139°52'0 0.1
2018-Feb-23 14:24N 35°35' E 139°52'0 0.0
2018-Feb-23 13:59N 35°35' E 139°52'0 0.0
2018-Feb-23 11:54N 35°35' E 139°52'0 0.0
2018-Feb-23 10:48N 35°35' E 139°52'0 0.0
2018-Feb-23 10:24N 35°35' E 139°52'0 0.0
2018-Feb-23 09:51N 35°35' E 139°52'0 0.0
2018-Feb-23 08:42N 35°35' E 139°52'0 0.0
2018-Feb-23 08:30N 35°35' E 139°52'0 0.1
2018-Feb-23 07:57N 35°35' E 139°52'0 0.2
2018-Feb-23 07:24N 35°35' E 139°52'4 9.9
2018-Feb-23 07:00N 35°33' E 139°56'5 9.4
2018-Feb-23 06:30N 35°30' E 140°01'1 1.2
2018-Feb-23 05:48N 35°30' E 140°02'0 0.0
2018-Feb-23 05:30N 35°30' E 140°02'0 0.1
2018-Feb-23 05:00N 35°30' E 140°02'0 0.1
2018-Feb-23 04:30N 35°30' E 140°02'1 2.6
2018-Feb-23 04:00N 35°31' E 140°01'510.8
2018-Feb-23 03:30N 35°33' E 139°55'510.6
2018-Feb-23 03:00N 35°37' E 139°50'1 1.1
2018-Feb-23 02:28N 35°37' E 139°50'0 0.1
2018-Feb-23 01:55N 35°37' E 139°50'0 0.0
2018-Feb-23 01:25N 35°37' E 139°50'0 0.0
2018-Feb-23 00:58N 35°37' E 139°50'0 0.1
2018-Feb-23 00:18N 35°37' E 139°50'1 4.2
2018-Feb-23 00:00N 35°36' E 139°50'3 2.0
2018-Feb-22 22:17N 35°35' E 139°54'0 0.0
2018-Feb-22 14:59N 35°35' E 139°54'0 0.0
2018-Feb-22 12:37N 35°35' E 139°54'2 9.3
2018-Feb-22 12:27N 35°33' E 139°56'410.0
2018-Feb-22 12:00N 35°31' E 140°00'2 2.4
2018-Feb-22 11:14N 35°30' E 140°02'0 0.1
2018-Feb-22 10:50N 35°30' E 140°02'0 0.0
2018-Feb-22 09:44N 35°30' E 140°02'0 0.2
2018-Feb-22 09:26N 35°30' E 140°02'0 0.1
2018-Feb-22 08:50N 35°30' E 140°02'0 0.0
2018-Feb-22 08:26N 35°30' E 140°02'0 0.0
2018-Feb-22 07:53N 35°30' E 140°02'0 0.0
2018-Feb-22 07:26N 35°30' E 140°02'1 1.9
2018-Feb-22 07:01N 35°30' E 140°01'510.9
2018-Feb-22 06:30N 35°34' E 139°56'4 7.5
2018-Feb-22 05:58N 35°36' E 139°51'0 0.0
2018-Feb-22 05:29N 35°36' E 139°51'2 4.4
2018-Feb-22 05:00N 35°37' E 139°50'0 0.0
2018-Feb-22 04:26N 35°37' E 139°50'0 0.0
2018-Feb-22 03:53N 35°37' E 139°50'0 0.1
2018-Feb-22 03:26N 35°37' E 139°50'0 0.1
2018-Feb-22 02:50N 35°37' E 139°50'2 3.7
2018-Feb-22 02:23N 35°36' E 139°50'1 1.8
2018-Feb-22 02:00N 35°35' E 139°51'3 6.1
2018-Feb-22 01:29N 35°34' E 139°54'510.1
2018-Feb-22 01:00N 35°31' E 139°60'2 4.2
2018-Feb-22 00:27N 35°30' E 140°02'0 0.0
2018-Feb-21 22:57N 35°30' E 140°02'0 0.1
2018-Feb-21 22:27N 35°30' E 140°02'2 4.9
2018-Feb-21 22:00N 35°31' E 139°60'5 9.3
2018-Feb-21 21:29N 35°34' E 139°55'3 5.1
2018-Feb-21 20:57N 35°35' E 139°52'0 0.0
2018-Feb-21 20:30N 35°35' E 139°52'0 0.0
2018-Feb-21 18:24N 35°35' E 139°52'0 0.0
2018-Feb-21 16:12N 35°35' E 139°52'0 0.0
2018-Feb-21 15:45N 35°35' E 139°52'0 0.0
2018-Feb-21 15:15N 35°35' E 139°52'0 0.0
2018-Feb-21 12:22N 35°35' E 139°52'0 0.0
2018-Feb-21 11:52N 35°35' E 139°52'0 0.0
2018-Feb-21 09:34N 35°35' E 139°52'0 0.0
2018-Feb-21 09:22N 35°35' E 139°52'0 0.0
2018-Feb-21 08:58N 35°35' E 139°52'0 0.0
2018-Feb-21 08:19N 35°35' E 139°52'0 0.3
2018-Feb-21 07:53N 35°35' E 139°52'3 7.5
2018-Feb-21 07:31N 35°37' E 139°50'0 0.1
2018-Feb-21 06:37N 35°37' E 139°50'0 0.0
2018-Feb-21 06:28N 35°37' E 139°50'0 0.0
2018-Feb-21 05:43N 35°37' E 139°50'0 0.1
2018-Feb-21 05:10N 35°37' E 139°50'0 1.7
2018-Feb-21 04:58N 35°37' E 139°50'3 6.9
2018-Feb-21 04:30N 35°35' E 139°52'5 9.6
2018-Feb-21 04:00N 35°32' E 139°57'4 8.8
2018-Feb-21 03:30N 35°30' E 140°02'0 0.0
2018-Feb-20 22:47N 35°30' E 140°02'1 4.5
2018-Feb-20 22:29N 35°31' E 140°00'1 2.5
2018-Feb-20 22:00N 35°31' E 139°60'510.1
2018-Feb-20 21:31N 35°35' E 139°55'2 1.2
2018-Feb-20 19:29N 35°36' E 139°52'0 0.0
2018-Feb-20 17:35N 35°36' E 139°52'0 0.1
2018-Feb-20 17:29N 35°36' E 139°52'0 0.0
2018-Feb-20 15:05N 35°36' E 139°52'0 0.0
2018-Feb-20 09:20N 35°36' E 139°52'2 7.4
2018-Feb-20 09:00N 35°37' E 139°50'0 0.7
2018-Feb-20 08:24N 35°37' E 139°50'0 0.0
2018-Feb-20 08:00N 35°37' E 139°50'0 0.1
2018-Feb-20 07:12N 35°37' E 139°50'0 0.2
2018-Feb-20 06:54N 35°37' E 139°50'0 1.1
2018-Feb-20 06:30N 35°37' E 139°50'2 3.9
2018-Feb-20 05:59N 35°35' E 139°51'0 0.1
2018-Feb-20 05:17N 35°35' E 139°52'0 0.1
2018-Feb-20 04:56N 35°35' E 139°52'3 7.3
2018-Feb-20 04:30N 35°34' E 139°55'510.1
2018-Feb-20 04:00N 35°31' E 140°00'2 3.4
2018-Feb-20 03:26N 35°30' E 140°02'0 0.1
2018-Feb-20 03:00N 35°30' E 140°02'0 0.1
2018-Feb-20 02:30N 35°30' E 140°02'0 0.0
2018-Feb-20 01:37N 35°30' E 140°02'0 0.0
2018-Feb-20 01:27N 35°30' E 140°02'1 2.0
2018-Feb-20 01:00N 35°30' E 140°01'5 9.4
2018-Feb-20 00:30N 35°34' E 139°57'4 1.1
2018-Feb-19 20:38N 35°35' E 139°52'0 0.0
2018-Feb-19 20:23N 35°35' E 139°52'0 0.0
2018-Feb-19 18:41N 35°35' E 139°52'0 0.0
2018-Feb-19 16:38N 35°35' E 139°52'0 0.0
2018-Feb-19 08:21N 35°35' E 139°52'3 7.0
2018-Feb-19 07:58N 35°37' E 139°50'0 0.0
2018-Feb-19 07:21N 35°37' E 139°50'0 0.0
2018-Feb-19 06:57N 35°37' E 139°50'0 0.0
2018-Feb-19 06:03N 35°37' E 139°50'0 0.2
2018-Feb-19 05:42N 35°37' E 139°50'1 4.4
2018-Feb-19 05:27N 35°36' E 139°50'4 8.1
2018-Feb-19 05:00N 35°34' E 139°54'510.1
2018-Feb-19 04:30N 35°32' E 139°59'3 1.1
2018-Feb-19 01:43N 35°30' E 140°02'1 5.5
2018-Feb-19 01:31N 35°30' E 140°01'2 4.7
2018-Feb-19 01:01N 35°32' E 139°58'510.8
2018-Feb-19 00:30N 35°35' E 139°53'3 4.8
2018-Feb-18 23:46N 35°37' E 139°50'0 0.0
2018-Feb-18 22:43N 35°37' E 139°50'0 0.0
2018-Feb-18 22:19N 35°37' E 139°50'0 0.1
2018-Feb-18 21:58N 35°37' E 139°50'2 4.0
2018-Feb-18 21:30N 35°36' E 139°51'1 0.2
2018-Feb-18 16:48N 35°36' E 139°52'0 0.0
2018-Feb-18 16:18N 35°36' E 139°52'0 0.0
2018-Feb-18 05:57N 35°36' E 139°52'5 8.7
2018-Feb-18 05:25N 35°33' E 139°57'410.0
2018-Feb-18 05:00N 35°30' E 140°01'1 0.3
2018-Feb-18 01:25N 35°30' E 140°02'2 5.2
2018-Feb-18 00:59N 35°31' E 139°60'1 1.3
2018-Feb-18 00:30N 35°32' E 139°60'510.6
2018-Feb-18 00:00N 35°35' E 139°55'2 0.1
2018-Feb-17 11:57N 35°36' E 139°53'0 0.0
2018-Feb-17 08:10N 35°36' E 139°53'1 8.3
2018-Feb-17 08:00N 35°36' E 139°51'2 1.5
2018-Feb-17 06:46N 35°37' E 139°50'0 0.0
2018-Feb-17 05:39N 35°37' E 139°50'0 0.2
2018-Feb-17 05:27N 35°37' E 139°50'2 4.5
2018-Feb-17 05:00N 35°35' E 139°51'610.3
2018-Feb-17 04:27N 35°32' E 139°57'510.0
2018-Feb-17 04:00N 35°30' E 140°02'0 0.1
2018-Feb-17 01:38N 35°30' E 140°02'0 2.1
2018-Feb-17 01:30N 35°30' E 140°02'4 7.5
2018-Feb-17 01:00N 35°32' E 139°58'511.0
2018-Feb-17 00:31N 35°35' E 139°52'3 1.2
2018-Feb-16 21:59N 35°37' E 139°50'3 5.4
2018-Feb-16 21:29N 35°35' E 139°52'0 0.0
2018-Feb-16 18:27N 35°35' E 139°52'0 0.0
2018-Feb-16 18:00N 35°35' E 139°52'0 0.0
2018-Feb-16 17:30N 35°35' E 139°52'0 0.0
2018-Feb-16 15:12N 35°35' E 139°52'0 0.0
2018-Feb-16 14:57N 35°35' E 139°52'0 0.0
2018-Feb-16 11:39N 35°35' E 139°52'1 6.5
2018-Feb-16 11:30N 35°34' E 139°53'510.2
2018-Feb-16 11:00N 35°32' E 139°58'4 1.0
2018-Feb-16 07:19N 35°30' E 140°02'0 0.0
2018-Feb-16 06:46N 35°30' E 140°02'0 0.0
2018-Feb-16 06:28N 35°30' E 140°02'0 0.1
2018-Feb-16 05:52N 35°30' E 140°02'2 5.3
2018-Feb-16 05:29N 35°31' E 139°60'4 8.8
2018-Feb-16 05:00N 35°34' E 139°56'4 1.9
2018-Feb-16 03:00N 35°35' E 139°52'2 4.7
2018-Feb-16 02:30N 35°37' E 139°50'0 0.0
2018-Feb-16 01:58N 35°37' E 139°50'0 0.0
2018-Feb-16 01:30N 35°37' E 139°50'0 0.0
2018-Feb-16 00:59N 35°37' E 139°50'0 0.0
2018-Feb-16 00:30N 35°37' E 139°50'0 0.0
2018-Feb-15 23:59N 35°37' E 139°50'2 2.9
2018-Feb-15 23:26N 35°36' E 139°50'2 0.4
2018-Feb-15 19:35N 35°35' E 139°52'0 0.0
2018-Feb-15 19:29N 35°35' E 139°52'0 0.0
2018-Feb-15 18:59N 35°35' E 139°52'0 0.0
2018-Feb-15 18:29N 35°35' E 139°52'0 0.0
2018-Feb-15 17:55N 35°35' E 139°52'0 0.0
2018-Feb-15 17:19N 35°35' E 139°52'0 0.1
2018-Feb-15 16:55N 35°35' E 139°52'0 0.0
2018-Feb-15 16:28N 35°35' E 139°52'0 0.0
2018-Feb-15 15:55N 35°35' E 139°52'0 0.0
2018-Feb-15 14:49N 35°35' E 139°52'0 0.1
2018-Feb-15 14:25N 35°35' E 139°52'0 0.0
2018-Feb-15 13:58N 35°35' E 139°52'0 0.1
2018-Feb-15 13:28N 35°35' E 139°52'0 0.0
2018-Feb-15 12:25N 35°35' E 139°52'0 0.0
2018-Feb-15 11:55N 35°35' E 139°52'0 0.0
2018-Feb-15 10:42N 35°35' E 139°52'0 0.0
2018-Feb-15 10:30N 35°35' E 139°52'0 0.0
2018-Feb-15 10:00N 35°35' E 139°52'0 0.7
2018-Feb-15 09:28N 35°35' E 139°53'510.3
2018-Feb-15 09:01N 35°32' E 139°58'4 8.4
2018-Feb-15 08:30N 35°30' E 140°02'0 0.0
2018-Feb-15 07:50N 35°30' E 140°02'0 0.0
2018-Feb-15 07:20N 35°30' E 140°02'0 0.0
2018-Feb-15 06:56N 35°30' E 140°02'0 0.1
2018-Feb-15 06:20N 35°30' E 140°02'0 0.1
2018-Feb-15 05:44N 35°30' E 140°02'0 0.0
2018-Feb-15 05:20N 35°30' E 140°02'0 0.0
2018-Feb-15 04:44N 35°30' E 140°02'0 0.1
2018-Feb-15 04:04N 35°30' E 140°02'0 0.6
2018-Feb-15 04:00N 35°30' E 140°02'2 4.8
2018-Feb-15 03:30N 35°31' E 139°60'3 5.7
2018-Feb-15 03:00N 35°33' E 139°57'510.4
2018-Feb-15 02:30N 35°36' E 139°51'2 1.3
2018-Feb-15 00:57N 35°37' E 139°50'0 0.0
2018-Feb-15 00:24N 35°37' E 139°50'0 0.2
2018-Feb-15 00:00N 35°37' E 139°50'3 5.4
2018-Feb-14 23:30N 35°35' E 139°52'0 0.1
2018-Feb-14 22:58N 35°35' E 139°52'0 0.0
2018-Feb-14 21:56N 35°35' E 139°52'0 0.0
2018-Feb-14 12:06N 35°35' E 139°52'1 4.2
2018-Feb-14 11:59N 35°35' E 139°52'4 9.3
2018-Feb-14 11:30N 35°33' E 139°57'5 9.2
2018-Feb-14 11:00N 35°30' E 140°02'0 0.5
2018-Feb-14 10:30N 35°30' E 140°02'0 0.0
2018-Feb-14 09:55N 35°30' E 140°02'0 0.0
2018-Feb-14 09:29N 35°30' E 140°02'0 0.0
2018-Feb-14 09:00N 35°30' E 140°02'0 0.0
2018-Feb-14 08:30N 35°30' E 140°02'0 0.0
2018-Feb-14 08:00N 35°30' E 140°02'0 0.0
2018-Feb-14 07:28N 35°30' E 140°02'0 0.0
2018-Feb-14 06:57N 35°30' E 140°02'0 0.3
2018-Feb-14 06:30N 35°30' E 140°02'3 5.1
2018-Feb-14 06:00N 35°31' E 139°59'3 6.8
2018-Feb-14 05:30N 35°32' E 139°55'5 9.8
2018-Feb-14 05:00N 35°35' E 139°51'2 0.8
2018-Feb-14 02:31N 35°37' E 139°50'0 0.7
2018-Feb-14 02:30N 35°37' E 139°50'3 6.8
2018-Feb-14 02:00N 35°34' E 139°52'3 6.4
2018-Feb-14 01:30N 35°33' E 139°56'510.1
2018-Feb-14 01:00N 35°30' E 140°01'  
Track history (hours):
 
Tides and Currents Weather Stations Pressure Air Temp Water Temp Dewpoint Dewpoint Depression Visibility Wind Speed Wind Dir Waves Ship Positions

Eiho Maru No.5

Last reported at 2018-Feb-23 22:55 UTC. Time now 2018-Feb-24 03:39 UTC.
Position N 35°37' E 139°50'.

Length 90 m; draft 4.5 m.

Type: Ship (hazmat cat A). MMSI: 431000692.

Date/timePositionNaut miles runAvg speedWind from/ knotsBaromVisibWave heightAir tempDewpointWater temp
2018-Feb-23 22:55N 35°37' E 139°50'0 0.0
2018-Feb-23 22:25N 35°37' E 139°50'0 0.2
2018-Feb-23 22:00N 35°37' E 139°50'3 5.4
2018-Feb-23 21:30N 35°35' E 139°52'0 0.4
2018-Feb-23 21:00N 35°35' E 139°52'0 0.0
2018-Feb-23 20:27N 35°35' E 139°52'0 0.1
2018-Feb-23 20:00N 35°35' E 139°52'0 0.0
2018-Feb-23 19:18N 35°35' E 139°52'0 0.0
2018-Feb-23 18:57N 35°35' E 139°52'0 0.0
2018-Feb-23 18:30N 35°35' E 139°52'0 0.0
2018-Feb-23 15:54N 35°35' E 139°52'0 0.0
2018-Feb-23 15:29N 35°35' E 139°52'0 0.0
2018-Feb-23 14:53N 35°35' E 139°52'0 0.1
2018-Feb-23 14:24N 35°35' E 139°52'0 0.0
2018-Feb-23 13:59N 35°35' E 139°52'0 0.0
2018-Feb-23 11:54N 35°35' E 139°52'0 0.0
2018-Feb-23 10:48N 35°35' E 139°52'0 0.0
2018-Feb-23 10:24N 35°35' E 139°52'0 0.0
2018-Feb-23 09:51N 35°35' E 139°52'0 0.0
2018-Feb-23 08:42N 35°35' E 139°52'0 0.0
2018-Feb-23 08:30N 35°35' E 139°52'0 0.1
2018-Feb-23 07:57N 35°35' E 139°52'0 0.2
2018-Feb-23 07:24N 35°35' E 139°52'4 9.9
2018-Feb-23 07:00N 35°33' E 139°56'5 9.4
2018-Feb-23 06:30N 35°30' E 140°01'1 1.2
2018-Feb-23 05:48N 35°30' E 140°02'0 0.0
2018-Feb-23 05:30N 35°30' E 140°02'0 0.1
2018-Feb-23 05:00N 35°30' E 140°02'0 0.1
2018-Feb-23 04:30N 35°30' E 140°02'1 2.6
2018-Feb-23 04:00N 35°31' E 140°01'510.8
2018-Feb-23 03:30N 35°33' E 139°55'510.6
2018-Feb-23 03:00N 35°37' E 139°50'1 1.1
2018-Feb-23 02:28N 35°37' E 139°50'0 0.1
2018-Feb-23 01:55N 35°37' E 139°50'0 0.0
2018-Feb-23 01:25N 35°37' E 139°50'0 0.0
2018-Feb-23 00:58N 35°37' E 139°50'0 0.1
2018-Feb-23 00:18N 35°37' E 139°50'1 4.2
2018-Feb-23 00:00N 35°36' E 139°50'3 2.0
2018-Feb-22 22:17N 35°35' E 139°54'0 0.0
2018-Feb-22 14:59N 35°35' E 139°54'0 0.0
2018-Feb-22 12:37N 35°35' E 139°54'2 9.3
2018-Feb-22 12:27N 35°33' E 139°56'410.0
2018-Feb-22 12:00N 35°31' E 140°00'2 2.4
2018-Feb-22 11:14N 35°30' E 140°02'0 0.1
2018-Feb-22 10:50N 35°30' E 140°02'0 0.0
2018-Feb-22 09:44N 35°30' E 140°02'0 0.2
2018-Feb-22 09:26N 35°30' E 140°02'0 0.1
2018-Feb-22 08:50N 35°30' E 140°02'0 0.0
2018-Feb-22 08:26N 35°30' E 140°02'0 0.0
2018-Feb-22 07:53N 35°30' E 140°02'0 0.0
2018-Feb-22 07:26N 35°30' E 140°02'1 1.9
2018-Feb-22 07:01N 35°30' E 140°01'510.9
2018-Feb-22 06:30N 35°34' E 139°56'4 7.5
2018-Feb-22 05:58N 35°36' E 139°51'0 0.0
2018-Feb-22 05:29N 35°36' E 139°51'2 4.4
2018-Feb-22 05:00N 35°37' E 139°50'0 0.0
2018-Feb-22 04:26N 35°37' E 139°50'0 0.0
2018-Feb-22 03:53N 35°37' E 139°50'0 0.1
2018-Feb-22 03:26N 35°37' E 139°50'0 0.1
2018-Feb-22 02:50N 35°37' E 139°50'2 3.7
2018-Feb-22 02:23N 35°36' E 139°50'1 1.8
2018-Feb-22 02:00N 35°35' E 139°51'3 6.1
2018-Feb-22 01:29N 35°34' E 139°54'510.1
2018-Feb-22 01:00N 35°31' E 139°60'2 4.2
2018-Feb-22 00:27N 35°30' E 140°02'0 0.0
2018-Feb-21 22:57N 35°30' E 140°02'0 0.1
2018-Feb-21 22:27N 35°30' E 140°02'2 4.9
2018-Feb-21 22:00N 35°31' E 139°60'5 9.3
2018-Feb-21 21:29N 35°34' E 139°55'3 5.1
2018-Feb-21 20:57N 35°35' E 139°52'0 0.0
2018-Feb-21 20:30N 35°35' E 139°52'0 0.0
2018-Feb-21 18:24N 35°35' E 139°52'0 0.0
2018-Feb-21 16:12N 35°35' E 139°52'0 0.0
2018-Feb-21 15:45N 35°35' E 139°52'0 0.0
2018-Feb-21 15:15N 35°35' E 139°52'0 0.0
2018-Feb-21 12:22N 35°35' E 139°52'0 0.0
2018-Feb-21 11:52N 35°35' E 139°52'0 0.0
2018-Feb-21 09:34N 35°35' E 139°52'0 0.0
2018-Feb-21 09:22N 35°35' E 139°52'0 0.0
2018-Feb-21 08:58N 35°35' E 139°52'0 0.0
2018-Feb-21 08:19N 35°35' E 139°52'0 0.3
2018-Feb-21 07:53N 35°35' E 139°52'3 7.5
2018-Feb-21 07:31N 35°37' E 139°50'0 0.1
2018-Feb-21 06:37N 35°37' E 139°50'0 0.0
2018-Feb-21 06:28N 35°37' E 139°50'0 0.0
2018-Feb-21 05:43N 35°37' E 139°50'0 0.1
2018-Feb-21 05:10N 35°37' E 139°50'0 1.7
2018-Feb-21 04:58N 35°37' E 139°50'3 6.9
2018-Feb-21 04:30N 35°35' E 139°52'5 9.6
2018-Feb-21 04:00N 35°32' E 139°57'4 8.8
2018-Feb-21 03:30N 35°30' E 140°02'0 0.0
2018-Feb-20 22:47N 35°30' E 140°02'1 4.5
2018-Feb-20 22:29N 35°31' E 140°00'1 2.5
2018-Feb-20 22:00N 35°31' E 139°60'510.1
2018-Feb-20 21:31N 35°35' E 139°55'2 1.2
2018-Feb-20 19:29N 35°36' E 139°52'0 0.0
2018-Feb-20 17:35N 35°36' E 139°52'0 0.1
2018-Feb-20 17:29N 35°36' E 139°52'0 0.0
2018-Feb-20 15:05N 35°36' E 139°52'0 0.0
2018-Feb-20 09:20N 35°36' E 139°52'2 7.4
2018-Feb-20 09:00N 35°37' E 139°50'0 0.7
2018-Feb-20 08:24N 35°37' E 139°50'0 0.0
2018-Feb-20 08:00N 35°37' E 139°50'0 0.1
2018-Feb-20 07:12N 35°37' E 139°50'0 0.2
2018-Feb-20 06:54N 35°37' E 139°50'0 1.1
2018-Feb-20 06:30N 35°37' E 139°50'2 3.9
2018-Feb-20 05:59N 35°35' E 139°51'0 0.1
2018-Feb-20 05:17N 35°35' E 139°52'0 0.1
2018-Feb-20 04:56N 35°35' E 139°52'3 7.3
2018-Feb-20 04:30N 35°34' E 139°55'510.1
2018-Feb-20 04:00N 35°31' E 140°00'2 3.4
2018-Feb-20 03:26N 35°30' E 140°02'0 0.1
2018-Feb-20 03:00N 35°30' E 140°02'0 0.1
2018-Feb-20 02:30N 35°30' E 140°02'0 0.0
2018-Feb-20 01:37N 35°30' E 140°02'0 0.0
2018-Feb-20 01:27N 35°30' E 140°02'1 2.0
2018-Feb-20 01:00N 35°30' E 140°01'5 9.4
2018-Feb-20 00:30N 35°34' E 139°57'4 1.1
2018-Feb-19 20:38N 35°35' E 139°52'0 0.0
2018-Feb-19 20:23N 35°35' E 139°52'0 0.0
2018-Feb-19 18:41N 35°35' E 139°52'0 0.0
2018-Feb-19 16:38N 35°35' E 139°52'0 0.0
2018-Feb-19 08:21N 35°35' E 139°52'3 7.0
2018-Feb-19 07:58N 35°37' E 139°50'0 0.0
2018-Feb-19 07:21N 35°37' E 139°50'0 0.0
2018-Feb-19 06:57N 35°37' E 139°50'0 0.0
2018-Feb-19 06:03N 35°37' E 139°50'0 0.2
2018-Feb-19 05:42N 35°37' E 139°50'1 4.4
2018-Feb-19 05:27N 35°36' E 139°50'4 8.1
2018-Feb-19 05:00N 35°34' E 139°54'510.1
2018-Feb-19 04:30N 35°32' E 139°59'3 1.1
2018-Feb-19 01:43N 35°30' E 140°02'1 5.5
2018-Feb-19 01:31N 35°30' E 140°01'2 4.7
2018-Feb-19 01:01N 35°32' E 139°58'510.8
2018-Feb-19 00:30N 35°35' E 139°53'3 4.8
2018-Feb-18 23:46N 35°37' E 139°50'0 0.0
2018-Feb-18 22:43N 35°37' E 139°50'0 0.0
2018-Feb-18 22:19N 35°37' E 139°50'0 0.1
2018-Feb-18 21:58N 35°37' E 139°50'2 4.0
2018-Feb-18 21:30N 35°36' E 139°51'1 0.2
2018-Feb-18 16:48N 35°36' E 139°52'0 0.0
2018-Feb-18 16:18N 35°36' E 139°52'0 0.0
2018-Feb-18 05:57N 35°36' E 139°52'5 8.7
2018-Feb-18 05:25N 35°33' E 139°57'410.0
2018-Feb-18 05:00N 35°30' E 140°01'1 0.3
2018-Feb-18 01:25N 35°30' E 140°02'2 5.2
2018-Feb-18 00:59N 35°31' E 139°60'1 1.3
2018-Feb-18 00:30N 35°32' E 139°60'510.6
2018-Feb-18 00:00N 35°35' E 139°55'2 0.1
2018-Feb-17 11:57N 35°36' E 139°53'0 0.0
2018-Feb-17 08:10N 35°36' E 139°53'1 8.3
2018-Feb-17 08:00N 35°36' E 139°51'2 1.5
2018-Feb-17 06:46N 35°37' E 139°50'0 0.0
2018-Feb-17 05:39N 35°37' E 139°50'0 0.2
2018-Feb-17 05:27N 35°37' E 139°50'2 4.5
2018-Feb-17 05:00N 35°35' E 139°51'610.3
2018-Feb-17 04:27N 35°32' E 139°57'510.0
2018-Feb-17 04:00N 35°30' E 140°02'0 0.1
2018-Feb-17 01:38N 35°30' E 140°02'0 2.1
2018-Feb-17 01:30N 35°30' E 140°02'4 7.5
2018-Feb-17 01:00N 35°32' E 139°58'511.0
2018-Feb-17 00:31N 35°35' E 139°52'3 1.2
2018-Feb-16 21:59N 35°37' E 139°50'3 5.4
2018-Feb-16 21:29N 35°35' E 139°52'0 0.0
2018-Feb-16 18:27N 35°35' E 139°52'0 0.0
2018-Feb-16 18:00N 35°35' E 139°52'0 0.0
2018-Feb-16 17:30N 35°35' E 139°52'0 0.0
2018-Feb-16 15:12N 35°35' E 139°52'0 0.0
2018-Feb-16 14:57N 35°35' E 139°52'0 0.0
2018-Feb-16 11:39N 35°35' E 139°52'1 6.5
2018-Feb-16 11:30N 35°34' E 139°53'510.2
2018-Feb-16 11:00N 35°32' E 139°58'4 1.0
2018-Feb-16 07:19N 35°30' E 140°02'0 0.0
2018-Feb-16 06:46N 35°30' E 140°02'0 0.0
2018-Feb-16 06:28N 35°30' E 140°02'0 0.1
2018-Feb-16 05:52N 35°30' E 140°02'2 5.3
2018-Feb-16 05:29N 35°31' E 139°60'4 8.8
2018-Feb-16 05:00N 35°34' E 139°56'4 1.9
2018-Feb-16 03:00N 35°35' E 139°52'2 4.7
2018-Feb-16 02:30N 35°37' E 139°50'0 0.0
2018-Feb-16 01:58N 35°37' E 139°50'0 0.0
2018-Feb-16 01:30N 35°37' E 139°50'0 0.0
2018-Feb-16 00:59N 35°37' E 139°50'0 0.0
2018-Feb-16 00:30N 35°37' E 139°50'0 0.0
2018-Feb-15 23:59N 35°37' E 139°50'2 2.9
2018-Feb-15 23:26N 35°36' E 139°50'2 0.4
2018-Feb-15 19:35N 35°35' E 139°52'0 0.0
2018-Feb-15 19:29N 35°35' E 139°52'0 0.0
2018-Feb-15 18:59N 35°35' E 139°52'0 0.0
2018-Feb-15 18:29N 35°35' E 139°52'0 0.0
2018-Feb-15 17:55N 35°35' E 139°52'0 0.0
2018-Feb-15 17:19N 35°35' E 139°52'0 0.1
2018-Feb-15 16:55N 35°35' E 139°52'0 0.0
2018-Feb-15 16:28N 35°35' E 139°52'0 0.0
2018-Feb-15 15:55N 35°35' E 139°52'0 0.0
2018-Feb-15 14:49N 35°35' E 139°52'0 0.1
2018-Feb-15 14:25N 35°35' E 139°52'0 0.0
2018-Feb-15 13:58N 35°35' E 139°52'0 0.1
2018-Feb-15 13:28N 35°35' E 139°52'0 0.0
2018-Feb-15 12:25N 35°35' E 139°52'0 0.0
2018-Feb-15 11:55N 35°35' E 139°52'0 0.0
2018-Feb-15 10:42N 35°35' E 139°52'0 0.0
2018-Feb-15 10:30N 35°35' E 139°52'0 0.0
2018-Feb-15 10:00N 35°35' E 139°52'0 0.7
2018-Feb-15 09:28N 35°35' E 139°53'510.3
2018-Feb-15 09:01N 35°32' E 139°58'4 8.4
2018-Feb-15 08:30N 35°30' E 140°02'0 0.0
2018-Feb-15 07:50N 35°30' E 140°02'0 0.0
2018-Feb-15 07:20N 35°30' E 140°02'0 0.0
2018-Feb-15 06:56N 35°30' E 140°02'0 0.1
2018-Feb-15 06:20N 35°30' E 140°02'0 0.1
2018-Feb-15 05:44N 35°30' E 140°02'0 0.0
2018-Feb-15 05:20N 35°30' E 140°02'0 0.0
2018-Feb-15 04:44N 35°30' E 140°02'0 0.1
2018-Feb-15 04:04N 35°30' E 140°02'0 0.6
2018-Feb-15 04:00N 35°30' E 140°02'2 4.8
2018-Feb-15 03:30N 35°31' E 139°60'3 5.7
2018-Feb-15 03:00N 35°33' E 139°57'510.4
2018-Feb-15 02:30N 35°36' E 139°51'2 1.3
2018-Feb-15 00:57N 35°37' E 139°50'0 0.0
2018-Feb-15 00:24N 35°37' E 139°50'0 0.2
2018-Feb-15 00:00N 35°37' E 139°50'3 5.4
2018-Feb-14 23:30N 35°35' E 139°52'0 0.1
2018-Feb-14 22:58N 35°35' E 139°52'0 0.0
2018-Feb-14 21:56N 35°35' E 139°52'0 0.0
2018-Feb-14 12:06N 35°35' E 139°52'1 4.2
2018-Feb-14 11:59N 35°35' E 139°52'4 9.3
2018-Feb-14 11:30N 35°33' E 139°57'5 9.2
2018-Feb-14 11:00N 35°30' E 140°02'0 0.5
2018-Feb-14 10:30N 35°30' E 140°02'0 0.0
2018-Feb-14 09:55N 35°30' E 140°02'0 0.0
2018-Feb-14 09:29N 35°30' E 140°02'0 0.0
2018-Feb-14 09:00N 35°30' E 140°02'0 0.0
2018-Feb-14 08:30N 35°30' E 140°02'0 0.0
2018-Feb-14 08:00N 35°30' E 140°02'0 0.0
2018-Feb-14 07:28N 35°30' E 140°02'0 0.0
2018-Feb-14 06:57N 35°30' E 140°02'0 0.3
2018-Feb-14 06:30N 35°30' E 140°02'3 5.1
2018-Feb-14 06:00N 35°31' E 139°59'3 6.8
2018-Feb-14 05:30N 35°32' E 139°55'5 9.8
2018-Feb-14 05:00N 35°35' E 139°51'2 0.8
2018-Feb-14 02:31N 35°37' E 139°50'0 0.7
2018-Feb-14 02:30N 35°37' E 139°50'3 6.8
2018-Feb-14 02:00N 35°34' E 139°52'3 6.4
2018-Feb-14 01:30N 35°33' E 139°56'510.1
2018-Feb-14 01:00N 35°30' E 140°01'  

Dump ship's entire track history